createdAt,value
2018-04-01T00:01:33.343Z,2.30
2018-04-01T00:04:00.788Z,1.73
2018-04-01T00:06:28.550Z,1.60
2018-04-01T00:08:56.000Z,1.63
2018-04-01T00:11:23.444Z,1.50
2018-04-01T00:13:50.906Z,1.57
2018-04-01T00:16:18.350Z,1.63
2018-04-01T00:18:45.794Z,1.43
2018-04-01T00:21:16.992Z,1.27
2018-04-01T00:23:44.444Z,1.53
2018-04-01T00:26:11.891Z,1.13
2018-04-01T00:28:39.343Z,0.87
2018-04-01T00:31:06.796Z,1.73
2018-04-01T00:33:34.252Z,1.33
2018-04-01T00:36:01.718Z,1.30
2018-04-01T00:38:29.161Z,1.47
2018-04-01T00:40:56.619Z,1.47
2018-04-01T00:43:24.069Z,3.43
2018-04-01T00:45:51.522Z,2.60
2018-04-01T00:48:18.976Z,1.70
2018-04-01T00:50:46.434Z,1.80
2018-04-01T00:53:13.883Z,2.70
2018-04-01T00:55:41.336Z,2.03
2018-04-01T00:58:08.784Z,1.77
2018-04-01T01:00:36.243Z,1.93
2018-04-01T01:03:03.687Z,1.77
2018-04-01T01:05:31.147Z,1.87
2018-04-01T01:07:58.591Z,1.50
2018-04-01T01:10:26.036Z,1.63
2018-04-01T01:12:53.492Z,1.97
2018-04-01T01:15:20.948Z,2.10
2018-04-01T01:17:48.396Z,2.07
2018-04-01T01:20:15.840Z,2.60
2018-04-01T01:22:43.408Z,3.07
2018-04-01T01:25:10.815Z,2.57
2018-04-01T01:27:38.268Z,3.30
2018-04-01T01:30:05.709Z,3.07
2018-04-01T01:32:33.159Z,2.73
2018-04-01T01:35:00.604Z,2.70
2018-04-01T01:37:28.046Z,2.40
2018-04-01T01:39:55.499Z,2.60
2018-04-01T01:42:22.944Z,2.00
2018-04-01T01:44:50.397Z,2.07
2018-04-01T01:47:17.847Z,2.17
2018-04-01T01:49:45.297Z,1.50
2018-04-01T01:52:12.747Z,1.90
2018-04-01T01:54:40.195Z,2.20
2018-04-01T01:57:07.640Z,2.60
2018-04-01T01:59:35.112Z,2.43
2018-04-01T02:02:02.551Z,3.07
2018-04-01T02:04:30.016Z,3.27
2018-04-01T02:06:57.463Z,3.33
2018-04-01T02:09:24.904Z,3.00
2018-04-01T02:11:52.355Z,3.97
2018-04-01T02:14:19.796Z,4.00
2018-04-01T02:16:47.260Z,4.30
2018-04-01T02:19:14.692Z,3.70
2018-04-01T02:21:42.247Z,4.10
2018-04-01T02:24:09.691Z,3.53
2018-04-01T02:26:37.143Z,3.97
2018-04-01T02:29:04.592Z,4.07
2018-04-01T02:31:32.137Z,4.40
2018-04-01T02:33:59.503Z,3.90
2018-04-01T02:36:26.975Z,4.17
2018-04-01T02:38:54.416Z,3.97
2018-04-01T02:41:21.856Z,3.93
2018-04-01T02:43:49.305Z,3.40
2018-04-01T02:46:16.765Z,3.23
2018-04-01T02:48:44.198Z,3.60
2018-04-01T02:51:11.644Z,3.70
2018-04-01T02:53:39.097Z,4.00
2018-04-01T02:56:06.543Z,3.67
2018-04-01T02:58:33.996Z,3.90
2018-04-01T03:01:01.444Z,3.77
2018-04-01T03:03:28.908Z,3.10
2018-04-01T03:05:56.343Z,3.90
2018-04-01T03:08:23.825Z,3.63
2018-04-01T03:10:51.256Z,3.80
2018-04-01T03:13:18.700Z,3.80
2018-04-01T03:15:46.165Z,3.20
2018-04-01T03:18:13.623Z,3.43
2018-04-01T03:20:41.078Z,3.70
2018-04-01T03:23:08.528Z,4.60
2018-04-01T03:25:35.984Z,3.83
2018-04-01T03:28:03.424Z,3.87
2018-04-01T03:30:30.876Z,3.77
2018-04-01T03:32:58.320Z,3.93
2018-04-01T03:35:25.773Z,3.97
2018-04-01T03:37:53.212Z,2.67
2018-04-01T03:40:20.647Z,4.10
2018-04-01T03:42:48.107Z,3.63
2018-04-01T03:45:15.573Z,3.50
2018-04-01T03:47:43.025Z,3.97
2018-04-01T03:50:10.464Z,3.40
2018-04-01T03:52:37.921Z,2.97
2018-04-01T03:55:05.359Z,3.67
2018-04-01T03:57:32.819Z,4.50
2018-04-01T04:00:00.268Z,4.20
2018-04-01T04:02:27.712Z,4.90
2018-04-01T04:04:55.157Z,4.77
2018-04-01T04:07:22.612Z,5.20
2018-04-01T04:09:50.055Z,5.23
2018-04-01T04:12:17.500Z,4.17
2018-04-01T04:14:44.947Z,5.10
2018-04-01T04:17:12.391Z,5.33
2018-04-01T04:19:39.847Z,4.73
2018-04-01T04:22:07.291Z,4.83
2018-04-01T04:24:34.747Z,4.90
2018-04-01T04:27:02.191Z,5.27
2018-04-01T04:29:31.631Z,6.13
2018-04-01T04:31:59.085Z,6.37
2018-04-01T04:34:26.531Z,5.77
2018-04-01T04:36:53.968Z,4.60
2018-04-01T04:39:21.429Z,4.73
2018-04-01T04:41:48.876Z,6.10
2018-04-01T04:44:16.319Z,4.83
2018-04-01T04:46:43.790Z,5.07
2018-04-01T04:49:11.211Z,6.00
2018-04-01T04:51:38.660Z,6.20
2018-04-01T04:54:06.099Z,5.80
2018-04-01T04:56:33.545Z,6.03
2018-04-01T04:59:01.004Z,6.30
2018-04-01T05:01:28.459Z,6.47
2018-04-01T05:03:55.907Z,7.03
2018-04-01T05:06:23.359Z,6.80
2018-04-01T05:08:50.804Z,6.60
2018-04-01T05:11:18.255Z,5.77
2018-04-01T05:13:45.704Z,5.50
2018-04-01T05:16:13.140Z,6.60
2018-04-01T05:18:40.595Z,4.70
2018-04-01T05:21:08.035Z,6.17
2018-04-01T05:23:35.491Z,4.57
2018-04-01T05:26:02.930Z,5.33
2018-04-01T05:28:30.393Z,5.00
2018-04-01T05:30:57.823Z,4.77
2018-04-01T05:33:25.288Z,5.13
2018-04-01T05:35:52.720Z,5.53
2018-04-01T05:38:20.164Z,5.10
2018-04-01T05:40:47.631Z,5.20
2018-04-01T05:43:15.076Z,5.00
2018-04-01T05:45:42.531Z,4.70
2018-04-01T05:48:09.993Z,5.03
2018-04-01T05:50:37.435Z,5.73
2018-04-01T05:53:04.894Z,4.53
2018-04-01T05:55:32.339Z,4.50
2018-04-01T05:57:59.787Z,6.10
2018-04-01T06:00:27.244Z,5.83
2018-04-01T06:02:54.687Z,5.17
2018-04-01T06:05:22.128Z,5.20
2018-04-01T06:07:49.577Z,5.17
2018-04-01T06:10:17.019Z,5.50
2018-04-01T06:12:44.477Z,6.00
2018-04-01T06:15:11.920Z,5.83
2018-04-01T06:17:39.375Z,5.77
2018-04-01T06:20:06.828Z,4.80
2018-04-01T06:22:34.285Z,5.57
2018-04-01T06:25:01.731Z,6.47
2018-04-01T06:27:29.187Z,5.90
2018-04-01T06:29:56.635Z,5.90
2018-04-01T06:32:24.099Z,5.50
2018-04-01T06:34:51.549Z,6.13
2018-04-01T06:37:19.013Z,5.47
2018-04-01T06:39:46.463Z,6.60
2018-04-01T06:42:13.923Z,7.03
2018-04-01T06:44:41.371Z,6.10
2018-04-01T06:47:08.829Z,6.47
2018-04-01T06:49:36.292Z,5.50
2018-04-01T06:52:03.740Z,5.57
2018-04-01T06:54:31.201Z,6.90
2018-04-01T06:56:58.683Z,6.87
2018-04-01T06:59:26.131Z,5.63
2018-04-01T07:01:53.575Z,6.50
2018-04-01T07:04:21.036Z,7.47
2018-04-01T07:06:48.478Z,7.20
2018-04-01T07:09:15.939Z,6.47
2018-04-01T07:11:43.391Z,6.37
2018-04-01T07:14:10.847Z,6.63
2018-04-01T07:16:38.303Z,5.90
2018-04-01T07:19:05.776Z,5.33
2018-04-01T07:21:33.223Z,5.90
2018-04-01T07:24:00.680Z,6.50
2018-04-01T07:26:28.143Z,5.00
2018-04-01T07:28:55.603Z,5.80
2018-04-01T07:31:23.061Z,6.07
2018-04-01T07:33:50.512Z,4.73
2018-04-01T07:36:18.022Z,5.43
2018-04-01T07:38:45.429Z,7.03
2018-04-01T07:41:12.928Z,5.70
2018-04-01T07:43:40.371Z,7.23
2018-04-01T07:46:07.826Z,5.73
2018-04-01T07:48:35.278Z,6.97
2018-04-01T07:51:02.730Z,6.87
2018-04-01T07:53:30.189Z,7.77
2018-04-01T07:55:57.658Z,7.13
2018-04-01T07:58:25.114Z,5.57
2018-04-01T08:00:52.562Z,4.43
2018-04-01T08:03:20.016Z,5.37
2018-04-01T08:05:47.472Z,6.90
2018-04-01T08:08:14.923Z,5.93
2018-04-01T08:10:42.372Z,7.70
2018-04-01T08:13:09.847Z,8.07
2018-04-01T08:15:37.288Z,6.10
2018-04-01T08:18:04.769Z,6.43
2018-04-01T08:20:32.212Z,6.70
2018-04-01T08:22:59.656Z,6.10
2018-04-01T08:25:27.143Z,8.00
2018-04-01T08:27:54.575Z,7.03
2018-04-01T08:30:22.036Z,8.17
2018-04-01T08:32:49.488Z,8.70
2018-04-01T08:35:16.946Z,8.40
2018-04-01T08:37:44.389Z,9.23
2018-04-01T08:40:11.859Z,8.00
2018-04-01T08:42:39.313Z,9.97
2018-04-01T08:45:06.768Z,9.30
2018-04-01T08:47:34.219Z,9.07
2018-04-01T08:50:01.688Z,10.07
2018-04-01T08:52:29.144Z,9.50
2018-04-01T08:54:56.603Z,10.23
2018-04-01T08:57:24.068Z,10.37
2018-04-01T08:59:51.538Z,10.00
2018-04-01T09:02:18.993Z,9.83
2018-04-01T09:04:46.445Z,10.50
2018-04-01T09:07:13.908Z,10.07
2018-04-01T09:09:41.368Z,9.97
2018-04-01T09:12:08.824Z,8.83
2018-04-01T09:14:36.275Z,9.40
2018-04-01T09:17:03.747Z,8.63
2018-04-01T09:19:31.195Z,8.77
2018-04-01T09:21:58.655Z,9.43
2018-04-01T09:24:26.167Z,9.47
2018-04-01T09:26:53.580Z,8.67
2018-04-01T09:29:21.039Z,10.07
2018-04-01T09:31:48.495Z,9.23
2018-04-01T09:34:15.963Z,9.63
2018-04-01T09:36:43.423Z,10.73
2018-04-01T09:39:10.895Z,9.40
2018-04-01T09:41:38.351Z,10.13
2018-04-01T09:44:05.875Z,9.90
2018-04-01T09:46:33.283Z,11.30
2018-04-01T09:49:00.744Z,12.23
2018-04-01T09:51:28.199Z,10.90
2018-04-01T09:53:55.663Z,10.90
2018-04-01T09:56:23.119Z,10.87
2018-04-01T09:58:50.591Z,11.00
2018-04-01T10:01:18.595Z,12.67
2018-04-01T10:03:46.598Z,10.83
2018-04-01T10:06:14.604Z,11.30
2018-04-01T10:08:42.937Z,12.40
2018-04-01T10:11:11.183Z,10.90
2018-04-01T10:13:39.456Z,12.17
2018-04-01T10:16:07.739Z,11.87
2018-04-01T10:18:36.027Z,12.07
2018-04-01T10:21:04.319Z,12.33
2018-04-01T10:23:32.609Z,12.60
2018-04-01T10:26:00.899Z,13.27
2018-04-01T10:28:29.184Z,11.93
2018-04-01T10:30:57.567Z,12.17
2018-04-01T10:33:25.843Z,12.70
2018-04-01T10:35:54.139Z,12.77
2018-04-01T10:38:22.427Z,12.50
2018-04-01T10:40:50.720Z,11.90
2018-04-01T10:43:19.064Z,12.30
2018-04-01T10:45:47.284Z,12.00
2018-04-01T10:48:15.654Z,11.73
2018-04-01T10:50:43.902Z,12.60
2018-04-01T10:53:12.199Z,11.53
2018-04-01T10:55:40.864Z,11.13
2018-04-01T10:58:08.351Z,11.50
2018-04-01T11:00:35.806Z,12.23
2018-04-01T11:03:03.262Z,11.90
2018-04-01T11:05:30.720Z,12.73
2018-04-01T11:07:58.192Z,13.90
2018-04-01T11:10:25.663Z,12.10
2018-04-01T11:12:53.126Z,12.50
2018-04-01T11:15:20.587Z,12.30
2018-04-01T11:17:48.059Z,13.07
2018-04-01T11:20:15.516Z,11.73
2018-04-01T11:22:42.988Z,12.43
2018-04-01T11:25:10.451Z,10.80
2018-04-01T11:27:37.908Z,12.60
2018-04-01T11:30:05.383Z,10.73
2018-04-01T11:32:32.840Z,10.57
2018-04-01T11:35:00.323Z,10.60
2018-04-01T11:37:27.775Z,9.50
2018-04-01T11:39:55.243Z,10.83
2018-04-01T11:42:22.720Z,10.90
2018-04-01T11:44:50.195Z,10.80
2018-04-01T11:47:17.656Z,10.93
2018-04-01T11:49:45.123Z,10.00
2018-04-01T11:52:12.607Z,11.17
2018-04-01T11:54:40.076Z,11.03
2018-04-01T11:57:07.537Z,10.63
2018-04-01T11:59:34.996Z,9.77
2018-04-01T12:02:02.515Z,10.27
2018-04-01T12:04:29.964Z,8.60
2018-04-01T12:06:57.436Z,9.57
2018-04-01T12:09:24.891Z,10.00
2018-04-01T12:11:52.357Z,9.67
2018-04-01T12:14:19.819Z,9.30
2018-04-01T12:16:47.280Z,8.83
2018-04-01T12:19:14.731Z,10.13
2018-04-01T12:21:42.297Z,9.13
2018-04-01T12:24:09.749Z,9.63
2018-04-01T12:26:37.215Z,10.63
2018-04-01T12:29:04.678Z,11.23
2018-04-01T12:31:32.168Z,15.80
2018-04-01T12:33:59.623Z,15.30
2018-04-01T12:36:27.084Z,13.23
2018-04-01T12:38:54.568Z,14.27
2018-04-01T12:41:22.000Z,16.37
2018-04-01T12:43:49.467Z,16.83
2018-04-01T12:46:16.915Z,15.17
2018-04-01T12:48:44.380Z,14.80
2018-04-01T12:51:11.844Z,17.03
2018-04-01T12:53:39.312Z,19.10
2018-04-01T12:56:06.764Z,16.87
2018-04-01T12:58:34.232Z,17.30
2018-04-01T13:01:01.696Z,19.07
2018-04-01T13:03:29.167Z,15.57
2018-04-01T13:05:56.619Z,16.17
2018-04-01T13:08:24.103Z,15.10
2018-04-01T13:10:51.572Z,15.40
2018-04-01T13:13:19.032Z,15.00
2018-04-01T13:15:46.495Z,14.83
2018-04-01T13:18:13.956Z,17.37
2018-04-01T13:20:41.424Z,14.73
2018-04-01T13:23:08.885Z,15.87
2018-04-01T13:25:36.357Z,14.57
2018-04-01T13:28:03.816Z,13.87
2018-04-01T13:30:31.280Z,13.60
2018-04-01T13:32:58.731Z,16.20
2018-04-01T13:35:26.200Z,16.07
2018-04-01T13:37:53.659Z,13.23
2018-04-01T13:40:21.127Z,17.53
2018-04-01T13:42:48.593Z,14.73
2018-04-01T13:45:16.072Z,18.57
2018-04-01T13:47:43.535Z,17.70
2018-04-01T13:50:11.012Z,16.83
2018-04-01T13:52:38.468Z,17.30
2018-04-01T13:55:05.939Z,18.03
2018-04-01T13:57:33.404Z,16.73
2018-04-01T14:00:00.867Z,16.93
2018-04-01T14:02:28.326Z,16.20
2018-04-01T14:04:55.791Z,18.70
2018-04-01T14:07:23.264Z,15.47
2018-04-01T14:09:50.731Z,15.93
2018-04-01T14:12:18.201Z,16.40
2018-04-01T14:14:45.659Z,17.10
2018-04-01T14:17:13.129Z,17.70
2018-04-01T14:19:40.596Z,17.17
2018-04-01T14:22:08.064Z,17.00
2018-04-01T14:24:35.521Z,15.80
2018-04-01T14:27:02.996Z,14.40
2018-04-01T14:29:31.173Z,17.83
2018-04-01T14:31:58.632Z,14.67
2018-04-01T14:34:26.107Z,16.90
2018-04-01T14:36:53.568Z,16.50
2018-04-01T14:39:21.064Z,15.13
2018-04-01T14:41:48.527Z,14.50
2018-04-01T14:44:16.001Z,13.70
2018-04-01T14:46:43.469Z,14.90
2018-04-01T14:49:10.932Z,13.77
2018-04-01T14:51:38.388Z,17.53
2018-04-01T14:54:05.854Z,16.07
2018-04-01T14:56:33.316Z,18.17
2018-04-01T14:59:01.043Z,19.73
2018-04-01T15:01:28.499Z,20.67
2018-04-01T15:03:55.967Z,20.20
2018-04-01T15:06:23.427Z,19.33
2018-04-01T15:08:50.886Z,18.40
2018-04-01T15:11:18.356Z,17.17
2018-04-01T15:13:45.819Z,16.67
2018-04-01T15:16:13.287Z,19.77
2018-04-01T15:18:40.744Z,18.40
2018-04-01T15:21:09.962Z,18.57
2018-04-01T15:23:37.383Z,16.70
2018-04-01T15:26:04.851Z,19.10
2018-04-01T15:28:32.313Z,22.20
2018-04-01T15:30:59.767Z,21.13
2018-04-01T15:33:27.231Z,22.00
2018-04-01T15:35:54.702Z,22.60
2018-04-01T15:38:22.183Z,22.40
2018-04-01T15:40:49.658Z,21.97
2018-04-01T15:43:17.099Z,22.70
2018-04-01T15:45:44.555Z,26.57
2018-04-01T15:48:12.024Z,25.30
2018-04-01T15:50:40.375Z,24.37
2018-04-01T15:53:07.847Z,25.10
2018-04-01T15:55:35.336Z,23.20
2018-04-01T15:58:02.799Z,22.73
2018-04-01T16:00:30.267Z,20.83
2018-04-01T16:02:57.723Z,23.27
2018-04-01T16:05:25.187Z,19.80
2018-04-01T16:07:52.639Z,17.13
2018-04-01T16:10:20.107Z,15.00
2018-04-01T16:12:47.559Z,15.13
2018-04-01T16:15:15.036Z,15.27
2018-04-01T16:17:42.479Z,12.53
2018-04-01T16:20:10.300Z,11.97
2018-04-01T16:22:37.759Z,12.03
2018-04-01T16:25:05.221Z,10.87
2018-04-01T16:27:32.684Z,12.63
2018-04-01T16:30:00.143Z,12.50
2018-04-01T16:32:27.635Z,12.10
2018-04-01T16:34:55.090Z,11.10
2018-04-01T16:37:22.549Z,10.17
2018-04-01T16:39:50.003Z,9.60
2018-04-01T16:42:17.463Z,10.80
2018-04-01T16:44:44.920Z,10.47
2018-04-01T16:47:12.387Z,11.50
2018-04-01T16:49:39.840Z,10.53
2018-04-01T16:52:07.308Z,11.80
2018-04-01T16:54:34.764Z,12.80
2018-04-01T16:57:02.223Z,12.17
2018-04-01T16:59:29.694Z,11.03
2018-04-01T17:01:57.164Z,13.50
2018-04-01T17:04:24.641Z,13.57
2018-04-01T17:06:52.091Z,12.30
2018-04-01T17:09:19.598Z,13.67
2018-04-01T17:11:47.039Z,14.60
2018-04-01T17:14:14.499Z,13.43
2018-04-01T17:16:41.953Z,16.63
2018-04-01T17:19:09.420Z,20.10
2018-04-01T17:21:36.867Z,18.87
2018-04-01T17:24:04.328Z,19.43
2018-04-01T17:26:31.793Z,18.80
2018-04-01T17:28:59.244Z,18.20
2018-04-01T17:31:26.716Z,17.03
2018-04-01T17:33:54.171Z,17.00
2018-04-01T17:36:21.648Z,16.20
2018-04-01T17:38:49.111Z,17.00
2018-04-01T17:41:16.605Z,17.43
2018-04-01T17:43:44.035Z,16.87
2018-04-01T17:46:11.835Z,16.97
2018-04-01T17:48:39.309Z,18.00
2018-04-01T17:51:06.761Z,19.53
2018-04-01T17:53:34.225Z,18.57
2018-04-01T17:56:01.696Z,20.30
2018-04-01T17:58:29.155Z,20.50
2018-04-01T18:00:56.603Z,18.47
2018-04-01T18:03:24.112Z,19.63
2018-04-01T18:05:51.560Z,15.33
2018-04-01T18:08:19.023Z,16.70
2018-04-01T18:10:46.475Z,17.03
2018-04-01T18:13:13.953Z,20.37
2018-04-01T18:15:41.398Z,20.07
2018-04-01T18:18:12.483Z,16.73
2018-04-01T18:20:39.943Z,17.97
2018-04-01T18:23:07.391Z,19.70
2018-04-01T18:25:35.008Z,14.73
2018-04-01T18:28:02.481Z,17.97
2018-04-01T18:30:30.085Z,17.17
2018-04-01T18:32:57.527Z,16.53
2018-04-01T18:35:24.996Z,19.50
2018-04-01T18:37:52.475Z,20.07
2018-04-01T18:40:19.935Z,20.87
2018-04-01T18:42:47.395Z,18.00
2018-04-01T18:45:14.872Z,21.17
2018-04-01T18:47:42.407Z,22.53
2018-04-01T18:50:09.831Z,17.10
2018-04-01T18:52:37.291Z,23.97
2018-04-01T18:55:04.760Z,19.97
2018-04-01T18:57:32.223Z,22.00
2018-04-01T18:59:59.690Z,21.93
2018-04-01T19:02:27.154Z,29.80
2018-04-01T19:04:54.613Z,28.57
2018-04-01T19:07:22.075Z,29.43
2018-04-01T19:09:49.605Z,27.50
2018-04-01T19:12:17.019Z,29.60
2018-04-01T19:14:44.499Z,34.40
2018-04-01T19:17:12.496Z,30.00
2018-04-01T19:19:40.787Z,42.10
2018-04-01T19:22:09.073Z,34.23
2018-04-01T19:24:37.372Z,41.03
2018-04-01T19:27:05.648Z,30.73
2018-04-01T19:29:33.940Z,39.90
2018-04-01T19:32:02.221Z,32.67
2018-04-01T19:34:30.520Z,33.43
2018-04-01T19:36:58.795Z,31.87
2018-04-01T19:39:27.076Z,30.20
2018-04-01T19:41:55.391Z,45.40
2018-04-01T19:44:23.663Z,41.80
2018-04-01T19:46:51.947Z,40.80
2018-04-01T19:49:20.260Z,37.30
2018-04-01T19:51:48.532Z,45.13
2018-04-01T19:54:16.811Z,45.90
2018-04-01T19:56:45.091Z,41.37
2018-04-01T19:59:13.370Z,38.37
2018-04-01T20:01:41.674Z,32.20
2018-04-01T20:04:10.681Z,43.07
2018-04-01T20:06:38.951Z,38.17
2018-04-01T20:09:07.240Z,40.00
2018-04-01T20:11:35.525Z,33.67
2018-04-01T20:14:03.836Z,39.07
2018-04-01T20:16:32.124Z,40.70
2018-04-01T20:19:00.428Z,41.93
2018-04-01T20:21:28.685Z,37.93
2018-04-01T20:23:56.971Z,31.17
2018-04-01T20:26:25.252Z,32.43
2018-04-01T20:28:53.539Z,39.00
2018-04-01T20:31:21.863Z,35.10
2018-04-01T20:33:50.218Z,33.57
2018-04-01T20:36:18.491Z,36.10
2018-04-01T20:38:46.763Z,37.43
2018-04-01T20:41:16.107Z,37.93
2018-04-01T20:43:44.339Z,39.73
2018-04-01T20:46:12.623Z,36.60
2018-04-01T20:48:40.900Z,38.73
2018-04-01T20:51:09.187Z,41.63
2018-04-01T20:53:37.480Z,36.80
2018-04-01T20:56:05.769Z,32.70
2018-04-01T20:58:34.050Z,42.60
2018-04-01T21:01:02.327Z,37.17
2018-04-01T21:03:30.604Z,33.83
2018-04-01T21:05:58.876Z,41.43
2018-04-01T21:08:27.156Z,43.33
2018-04-01T21:10:55.432Z,40.37
2018-04-01T21:13:23.715Z,40.13
2018-04-01T21:15:52.008Z,40.13
2018-04-01T21:18:20.288Z,35.90
2018-04-01T21:20:48.576Z,40.80
2018-04-01T21:23:16.875Z,43.70
2018-04-01T21:25:45.151Z,33.97
2018-04-01T21:28:13.437Z,38.67
2018-04-01T21:30:41.712Z,39.30
2018-04-01T21:33:10.023Z,37.17
2018-04-01T21:35:38.308Z,43.97
2018-04-01T21:38:06.632Z,37.63
2018-04-01T21:40:34.907Z,34.70
2018-04-01T21:43:03.179Z,41.30
2018-04-01T21:45:31.467Z,44.53
2018-04-01T21:47:59.744Z,40.53
2018-04-01T21:50:28.030Z,39.73
2018-04-01T21:52:56.303Z,43.33
2018-04-01T21:55:24.599Z,39.60
2018-04-01T21:57:52.879Z,37.30
2018-04-01T22:00:21.181Z,46.00
2018-04-01T22:02:49.476Z,37.03
2018-04-01T22:05:17.765Z,38.33
2018-04-01T22:07:46.047Z,44.87
2018-04-01T22:10:14.335Z,45.37
2018-04-01T22:12:42.612Z,37.90
2018-04-01T22:15:10.896Z,51.00
2018-04-01T22:17:39.185Z,47.57
2018-04-01T22:20:07.462Z,38.50
2018-04-01T22:22:47.642Z,59.80
2018-04-01T22:25:15.912Z,43.03
2018-04-01T22:27:44.195Z,47.17
2018-04-01T22:30:12.472Z,44.33
2018-04-01T22:32:40.764Z,40.53
2018-04-01T22:35:09.043Z,44.80
2018-04-01T22:37:37.336Z,36.80
2018-04-01T22:40:05.613Z,52.57
2018-04-01T22:42:33.904Z,45.43
2018-04-01T22:45:02.180Z,39.20
2018-04-01T22:47:30.475Z,34.27
2018-04-01T22:49:58.775Z,55.00
2018-04-01T22:52:27.056Z,47.43
2018-04-01T22:54:55.338Z,56.00
2018-04-01T22:57:23.608Z,41.13
2018-04-01T22:59:51.887Z,32.03
2018-04-01T23:02:20.167Z,44.77
2018-04-01T23:04:48.451Z,45.00
2018-04-01T23:07:16.723Z,37.73
2018-04-01T23:09:45.003Z,45.60
2018-04-01T23:12:13.272Z,45.73
2018-04-01T23:14:41.581Z,39.37
2018-04-01T23:17:09.900Z,41.47
2018-04-01T23:19:38.179Z,39.03
2018-04-01T23:22:06.463Z,39.20
2018-04-01T23:24:34.747Z,45.33
2018-04-01T23:27:03.023Z,44.47
2018-04-01T23:29:31.306Z,48.20
2018-04-01T23:31:59.583Z,49.40
2018-04-01T23:34:27.856Z,44.63
2018-04-01T23:36:56.144Z,40.30
2018-04-01T23:39:24.415Z,43.40
2018-04-01T23:41:52.700Z,50.77
2018-04-01T23:44:20.972Z,46.13
2018-04-01T23:46:49.259Z,41.83
2018-04-01T23:49:17.536Z,42.10
2018-04-01T23:51:45.819Z,46.47
2018-04-01T23:54:14.085Z,46.30
2018-04-01T23:56:42.684Z,42.97
2018-04-01T23:59:10.986Z,49.03
